sensor_id;sensor_type;location;lat;lon;timestamp;pressure;altitude;pressure_sealevel;temperature;humidity
74722;BME280;63470;49.826;6.740;2023-04-25T00:01:31;99635.59;;;9.14;60.76
74722;BME280;63470;49.826;6.740;2023-04-25T00:04:02;99637.70;;;9.16;60.80
74722;BME280;63470;49.826;6.740;2023-04-25T00:06:34;99635.48;;;9.19;60.79
74722;BME280;63470;49.826;6.740;2023-04-25T00:09:02;99633.92;;;9.23;60.68
74722;BME280;63470;49.826;6.740;2023-04-25T00:11:32;99633.55;;;9.25;60.65
74722;BME280;63470;49.826;6.740;2023-04-25T00:14:05;99629.42;;;9.26;60.63
74722;BME280;63470;49.826;6.740;2023-04-25T00:16:40;99629.02;;;9.27;60.61
74722;BME280;63470;49.826;6.740;2023-04-25T00:19:08;99630.01;;;9.25;60.60
74722;BME280;63470;49.826;6.740;2023-04-25T00:21:39;99631.66;;;9.22;60.71
74722;BME280;63470;49.826;6.740;2023-04-25T00:24:07;99636.38;;;9.20;60.77
74722;BME280;63470;49.826;6.740;2023-04-25T00:26:40;99629.80;;;9.19;60.77
74722;BME280;63470;49.826;6.740;2023-04-25T00:29:10;99627.78;;;9.18;60.80
74722;BME280;63470;49.826;6.740;2023-04-25T00:31:41;99626.09;;;9.17;60.83
74722;BME280;63470;49.826;6.740;2023-04-25T00:34:06;99624.20;;;9.16;60.87
74722;BME280;63470;49.826;6.740;2023-04-25T00:36:37;99619.51;;;9.16;60.86
74722;BME280;63470;49.826;6.740;2023-04-25T00:39:07;99620.20;;;9.14;60.86
74722;BME280;63470;49.826;6.740;2023-04-25T00:41:38;99617.70;;;9.13;60.89
74722;BME280;63470;49.826;6.740;2023-04-25T00:44:08;99618.03;;;9.11;60.93
74722;BME280;63470;49.826;6.740;2023-04-25T00:46:39;99622.62;;;9.09;60.97
74722;BME280;63470;49.826;6.740;2023-04-25T00:49:16;99617.45;;;9.07;60.98
74722;BME280;63470;49.826;6.740;2023-04-25T00:51:45;99607.29;;;9.05;60.92
74722;BME280;63470;49.826;6.740;2023-04-25T00:54:12;99610.04;;;9.04;60.84
74722;BME280;63470;49.826;6.740;2023-04-25T00:56:42;99605.39;;;9.03;60.80
74722;BME280;63470;49.826;6.740;2023-04-25T00:59:12;99603.12;;;9.01;60.79
74722;BME280;63470;49.826;6.740;2023-04-25T01:01:43;99607.94;;;8.98;60.84
74722;BME280;63470;49.826;6.740;2023-04-25T01:04:13;99604.27;;;8.96;60.85
74722;BME280;63470;49.826;6.740;2023-04-25T01:06:42;99614.44;;;8.94;60.88
74722;BME280;63470;49.826;6.740;2023-04-25T01:09:13;99616.61;;;8.92;60.91
74722;BME280;63470;49.826;6.740;2023-04-25T01:11:48;99623.40;;;8.89;60.93
74722;BME280;63470;49.826;6.740;2023-04-25T01:14:19;99624.92;;;8.87;60.97
74722;BME280;63470;49.826;6.740;2023-04-25T01:16:45;99621.83;;;8.86;60.96
74722;BME280;63470;49.826;6.740;2023-04-25T01:19:16;99622.74;;;8.89;60.94
74722;BME280;63470;49.826;6.740;2023-04-25T01:21:46;99621.92;;;8.93;60.92
74722;BME280;63470;49.826;6.740;2023-04-25T01:24:16;99623.28;;;8.99;60.90
74722;BME280;63470;49.826;6.740;2023-04-25T01:26:50;99627.73;;;9.04;60.84
74722;BME280;63470;49.826;6.740;2023-04-25T01:29:17;99612.34;;;9.07;60.76
74722;BME280;63470;49.826;6.740;2023-04-25T01:31:47;99601.69;;;9.05;60.72
74722;BME280;63470;49.826;6.740;2023-04-25T01:34:20;99592.47;;;8.97;60.79
74722;BME280;63470;49.826;6.740;2023-04-25T01:36:54;99604.72;;;8.86;60.91
74722;BME280;63470;49.826;6.740;2023-04-25T01:39:23;99601.08;;;8.74;61.04
74722;BME280;63470;49.826;6.740;2023-04-25T01:41:49;99597.20;;;8.62;61.13
74722;BME280;63470;49.826;6.740;2023-04-25T01:44:20;99592.16;;;8.50;61.25
74722;BME280;63470;49.826;6.740;2023-04-25T01:46:51;99590.77;;;8.40;61.27
74722;BME280;63470;49.826;6.740;2023-04-25T01:49:22;99588.94;;;8.32;61.21
74722;BME280;63470;49.826;6.740;2023-04-25T01:51:52;99593.23;;;8.23;61.26
74722;BME280;63470;49.826;6.740;2023-04-25T01:54:23;99593.12;;;8.15;61.33
74722;BME280;63470;49.826;6.740;2023-04-25T01:56:56;99595.34;;;8.06;61.50
74722;BME280;63470;49.826;6.740;2023-04-25T01:59:29;99599.66;;;7.96;61.68
74722;BME280;63470;49.826;6.740;2023-04-25T02:01:57;99595.76;;;7.90;61.84
74722;BME280;63470;49.826;6.740;2023-04-25T02:04:30;99600.20;;;7.89;61.85
74722;BME280;63470;49.826;6.740;2023-04-25T02:07:01;99603.19;;;7.87;61.87
74722;BME280;63470;49.826;6.740;2023-04-25T02:09:26;99604.66;;;7.88;61.94
74722;BME280;63470;49.826;6.740;2023-04-25T02:11:57;99597.12;;;7.91;61.87
74722;BME280;63470;49.826;6.740;2023-04-25T02:14:28;99599.80;;;7.93;61.77
74722;BME280;63470;49.826;6.740;2023-04-25T02:16:59;99594.02;;;7.95;61.68
74722;BME280;63470;49.826;6.740;2023-04-25T02:19:28;99592.52;;;7.98;61.61
74722;BME280;63470;49.826;6.740;2023-04-25T02:21:59;99596.39;;;8.01;61.58
74722;BME280;63470;49.826;6.740;2023-04-25T02:24:29;99599.17;;;8.07;61.50
74722;BME280;63470;49.826;6.740;2023-04-25T02:27:00;99599.98;;;8.13;61.34
74722;BME280;63470;49.826;6.740;2023-04-25T02:29:31;99597.69;;;8.18;61.24
74722;BME280;63470;49.826;6.740;2023-04-25T02:32:06;99592.12;;;8.21;61.12
74722;BME280;63470;49.826;6.740;2023-04-25T02:34:32;99595.50;;;8.24;60.97
74722;BME280;63470;49.826;6.740;2023-04-25T02:37:02;99596.32;;;8.27;60.91
74722;BME280;63470;49.826;6.740;2023-04-25T02:39:32;99587.98;;;8.29;60.92
74722;BME280;63470;49.826;6.740;2023-04-25T02:42:03;99587.45;;;8.31;60.93
74722;BME280;63470;49.826;6.740;2023-04-25T02:44:34;99590.62;;;8.32;60.96
74722;BME280;63470;49.826;6.740;2023-04-25T02:47:04;99587.75;;;8.33;61.01
74722;BME280;63470;49.826;6.740;2023-04-25T02:49:34;99589.89;;;8.33;61.10
74722;BME280;63470;49.826;6.740;2023-04-25T02:52:05;99586.77;;;8.33;61.18
74722;BME280;63470;49.826;6.740;2023-04-25T02:54:35;99587.88;;;8.36;61.13
74722;BME280;63470;49.826;6.740;2023-04-25T02:57:06;99589.33;;;8.36;61.13
74722;BME280;63470;49.826;6.740;2023-04-25T02:59:41;99587.63;;;8.36;61.14
74722;BME280;63470;49.826;6.740;2023-04-25T03:02:06;99586.45;;;8.36;61.16
74722;BME280;63470;49.826;6.740;2023-04-25T03:04:37;99583.38;;;8.39;61.15
74722;BME280;63470;49.826;6.740;2023-04-25T03:07:08;99581.73;;;8.43;61.15
74722;BME280;63470;49.826;6.740;2023-04-25T03:09:38;99586.92;;;8.48;61.11
74722;BME280;63470;49.826;6.740;2023-04-25T03:12:08;99589.53;;;8.54;61.07
74722;BME280;63470;49.826;6.740;2023-04-25T03:14:39;99586.67;;;8.61;61.00
74722;BME280;63470;49.826;6.740;2023-04-25T03:17:09;99588.98;;;8.66;60.93
74722;BME280;63470;49.826;6.740;2023-04-25T03:19:45;99593.26;;;8.70;60.89
74722;BME280;63470;49.826;6.740;2023-04-25T03:22:11;99593.14;;;8.72;60.88
74722;BME280;63470;49.826;6.740;2023-04-25T03:24:41;99592.61;;;8.73;60.86
74722;BME280;63470;49.826;6.740;2023-04-25T03:27:16;99594.38;;;8.75;60.80
74722;BME280;63470;49.826;6.740;2023-04-25T03:29:47;99592.53;;;8.77;60.80
74722;BME280;63470;49.826;6.740;2023-04-25T03:32:17;99593.64;;;8.80;60.82
74722;BME280;63470;49.826;6.740;2023-04-25T03:34:43;99591.47;;;8.82;60.81
74722;BME280;63470;49.826;6.740;2023-04-25T03:37:13;99595.50;;;8.82;60.83
74722;BME280;63470;49.826;6.740;2023-04-25T03:39:44;99589.33;;;8.82;60.77
74722;BME280;63470;49.826;6.740;2023-04-25T03:42:14;99597.34;;;8.80;60.78
74722;BME280;63470;49.826;6.740;2023-04-25T03:44:45;99598.04;;;8.78;60.86
74722;BME280;63470;49.826;6.740;2023-04-25T03:47:16;99598.87;;;8.78;60.82
74722;BME280;63470;49.826;6.740;2023-04-25T03:49:46;99600.27;;;8.78;60.76
74722;BME280;63470;49.826;6.740;2023-04-25T03:52:21;99596.23;;;8.78;60.79
74722;BME280;63470;49.826;6.740;2023-04-25T03:54:53;99587.40;;;8.79;60.75
74722;BME280;63470;49.826;6.740;2023-04-25T03:57:25;99593.81;;;8.88;61.39
74722;BME280;63470;49.826;6.740;2023-04-25T03:59:53;99591.98;;;9.01;61.23
74722;BME280;63470;49.826;6.740;2023-04-25T04:02:18;99592.51;;;9.00;60.82
74722;BME280;63470;49.826;6.740;2023-04-25T04:04:49;99591.15;;;8.94;60.65
74722;BME280;63470;49.826;6.740;2023-04-25T04:07:20;99600.60;;;8.86;60.61
74722;BME280;63470;49.826;6.740;2023-04-25T04:09:50;99599.32;;;8.80;60.64
74722;BME280;63470;49.826;6.740;2023-04-25T04:12:21;99603.76;;;8.76;60.62
74722;BME280;63470;49.826;6.740;2023-04-25T04:14:51;99604.05;;;8.73;60.65
74722;BME280;63470;49.826;6.740;2023-04-25T04:17:22;99602.27;;;8.72;60.72
74722;BME280;63470;49.826;6.740;2023-04-25T04:19:52;99607.00;;;8.70;60.76
74722;BME280;63470;49.826;6.740;2023-04-25T04:22:25;99603.45;;;8.70;60.80
74722;BME280;63470;49.826;6.740;2023-04-25T04:24:58;99608.93;;;8.72;60.79
74722;BME280;63470;49.826;6.740;2023-04-25T04:27:24;99603.59;;;8.72;60.76
74722;BME280;63470;49.826;6.740;2023-04-25T04:29:59;99608.77;;;8.72;60.77
74722;BME280;63470;49.826;6.740;2023-04-25T04:32:31;99606.02;;;8.69;60.86
74722;BME280;63470;49.826;6.740;2023-04-25T04:39:57;99613.81;;;9.44;63.19
74722;BME280;63470;49.826;6.740;2023-04-25T04:42:28;99614.58;;;9.62;61.44
74722;BME280;63470;49.826;6.740;2023-04-25T04:45:01;99614.25;;;9.62;60.30
74722;BME280;63470;49.826;6.740;2023-04-25T04:47:38;99618.75;;;9.53;59.88
74722;BME280;63470;49.826;6.740;2023-04-25T04:50:05;99619.83;;;9.40;59.79
74722;BME280;63470;49.826;6.740;2023-04-25T04:52:32;99623.58;;;9.30;59.81
74722;BME280;63470;49.826;6.740;2023-04-25T04:55:06;99626.95;;;9.23;59.88
74722;BME280;63470;49.826;6.740;2023-04-25T04:57:38;99628.27;;;9.19;59.81
74722;BME280;63470;49.826;6.740;2023-04-25T05:02:33;99637.83;;;9.34;61.92
74722;BME280;63470;49.826;6.740;2023-04-25T05:05:05;99638.10;;;9.56;61.09
74722;BME280;63470;49.826;6.740;2023-04-25T05:07:35;99638.88;;;9.58;60.24
74722;BME280;63470;49.826;6.740;2023-04-25T05:10:06;99638.28;;;9.48;60.01
74722;BME280;63470;49.826;6.740;2023-04-25T05:12:36;99643.02;;;9.38;59.98
74722;BME280;63470;49.826;6.740;2023-04-25T05:15:07;99644.45;;;9.28;59.99
74722;BME280;63470;49.826;6.740;2023-04-25T05:17:37;99652.80;;;9.23;59.99
74722;BME280;63470;49.826;6.740;2023-04-25T05:20:10;99653.80;;;9.18;60.05
74722;BME280;63470;49.826;6.740;2023-04-25T05:22:38;99655.73;;;9.15;60.10
74722;BME280;63470;49.826;6.740;2023-04-25T05:25:09;99657.41;;;9.13;60.13
74722;BME280;63470;49.826;6.740;2023-04-25T05:27:40;99663.62;;;9.12;60.17
74722;BME280;63470;49.826;6.740;2023-04-25T05:30:10;99661.85;;;9.09;60.25
74722;BME280;63470;49.826;6.740;2023-04-25T05:32:41;99665.96;;;9.06;60.38
74722;BME280;63470;49.826;6.740;2023-04-25T05:35:10;99661.52;;;9.07;60.43
74722;BME280;63470;49.826;6.740;2023-04-25T05:37:44;99665.39;;;9.09;60.47
74722;BME280;63470;49.826;6.740;2023-04-25T05:40:12;99666.34;;;9.12;60.46
74722;BME280;63470;49.826;6.740;2023-04-25T05:42:47;99673.95;;;9.14;60.50
74722;BME280;63470;49.826;6.740;2023-04-25T05:45:17;99675.19;;;9.14;60.55
74722;BME280;63470;49.826;6.740;2023-04-25T05:47:48;99677.29;;;9.16;60.62
74722;BME280;63470;49.826;6.740;2023-04-25T05:50:18;99677.30;;;9.20;60.57
74722;BME280;63470;49.826;6.740;2023-04-25T05:52:44;99682.03;;;9.23;60.46
74722;BME280;63470;49.826;6.740;2023-04-25T05:55:14;99685.08;;;9.22;60.44
74722;BME280;63470;49.826;6.740;2023-04-25T05:57:45;99683.72;;;9.19;60.55
74722;BME280;63470;49.826;6.740;2023-04-25T06:00:17;99690.34;;;9.19;60.52
74722;BME280;63470;49.826;6.740;2023-04-25T06:02:46;99693.59;;;9.16;60.57
74722;BME280;63470;49.826;6.740;2023-04-25T06:05:17;99693.00;;;9.13;60.56
74722;BME280;63470;49.826;6.740;2023-04-25T06:07:47;99697.91;;;9.13;60.68
74722;BME280;63470;49.826;6.740;2023-04-25T06:10:17;99698.31;;;9.14;60.67
74722;BME280;63470;49.826;6.740;2023-04-25T06:12:48;99696.62;;;9.13;60.60
74722;BME280;63470;49.826;6.740;2023-04-25T06:15:19;99703.37;;;9.09;60.67
74722;BME280;63470;49.826;6.740;2023-04-25T06:17:49;99705.38;;;9.07;60.79
74722;BME280;63470;49.826;6.740;2023-04-25T06:20:25;99706.41;;;9.08;60.84
74722;BME280;63470;49.826;6.740;2023-04-25T06:22:51;99707.98;;;9.08;60.81
74722;BME280;63470;49.826;6.740;2023-04-25T06:25:21;99709.68;;;9.13;60.83
74722;BME280;63470;49.826;6.740;2023-04-25T06:27:51;99710.38;;;9.20;60.81
74722;BME280;63470;49.826;6.740;2023-04-25T06:30:26;99715.50;;;9.29;60.79
74722;BME280;63470;49.826;6.740;2023-04-25T06:32:52;99718.97;;;9.35;60.64
74722;BME280;63470;49.826;6.740;2023-04-25T06:35:27;99722.30;;;9.39;60.70
74722;BME280;63470;49.826;6.740;2023-04-25T06:37:58;99722.27;;;9.43;60.67
74722;BME280;63470;49.826;6.740;2023-04-25T06:40:28;99724.00;;;9.49;60.64
74722;BME280;63470;49.826;6.740;2023-04-25T06:42:58;99726.02;;;9.55;60.66
74722;BME280;63470;49.826;6.740;2023-04-25T06:45:40;99729.81;;;9.63;60.61
74722;BME280;63470;49.826;6.740;2023-04-25T06:47:57;99730.63;;;9.70;60.55
74722;BME280;63470;49.826;6.740;2023-04-25T06:50:30;99739.16;;;9.73;60.57
74722;BME280;63470;49.826;6.740;2023-04-25T06:52:55;99739.41;;;9.72;60.70
74722;BME280;63470;49.826;6.740;2023-04-25T06:55:26;99738.09;;;9.68;60.85
74722;BME280;63470;49.826;6.740;2023-04-25T06:57:56;99742.54;;;9.64;60.92
74722;BME280;63470;49.826;6.740;2023-04-25T07:00:26;99745.17;;;9.59;61.03
74722;BME280;63470;49.826;6.740;2023-04-25T07:02:57;99749.62;;;9.57;61.09
74722;BME280;63470;49.826;6.740;2023-04-25T07:05:27;99753.53;;;9.59;61.12
74722;BME280;63470;49.826;6.740;2023-04-25T07:07:58;99757.41;;;9.62;61.05
74722;BME280;63470;49.826;6.740;2023-04-25T07:10:28;99757.86;;;9.64;60.96
74722;BME280;63470;49.826;6.740;2023-04-25T07:13:00;99764.08;;;9.63;60.94
74722;BME280;63470;49.826;6.740;2023-04-25T07:15:34;99763.75;;;9.58;60.92
74722;BME280;63470;49.826;6.740;2023-04-25T07:18:04;99771.44;;;9.49;61.02
74722;BME280;63470;49.826;6.740;2023-04-25T07:20:35;99770.55;;;9.39;61.11
74722;BME280;63470;49.826;6.740;2023-04-25T07:23:06;99776.67;;;9.27;61.24
74722;BME280;63470;49.826;6.740;2023-04-25T07:25:31;99776.86;;;9.21;61.36
74722;BME280;63470;49.826;6.740;2023-04-25T07:28:02;99778.46;;;9.20;61.35
74722;BME280;63470;49.826;6.740;2023-04-25T07:30:32;99783.25;;;9.25;61.35
74722;BME280;63470;49.826;6.740;2023-04-25T07:33:03;99783.44;;;9.36;61.26
74722;BME280;63470;49.826;6.740;2023-04-25T07:35:33;99791.69;;;9.39;61.02
74722;BME280;63470;49.826;6.740;2023-04-25T07:38:04;99799.08;;;9.33;61.03
74722;BME280;63470;49.826;6.740;2023-04-25T07:40:35;99800.77;;;9.21;61.12
74722;BME280;63470;49.826;6.740;2023-04-25T07:43:05;99800.20;;;9.11;61.26
74722;BME280;63470;49.826;6.740;2023-04-25T07:45:36;99803.84;;;9.05;61.40
74722;BME280;63470;49.826;6.740;2023-04-25T07:48:07;99808.73;;;9.01;61.41
74722;BME280;63470;49.826;6.740;2023-04-25T07:50:37;99812.75;;;8.97;61.39
74722;BME280;63470;49.826;6.740;2023-04-25T07:53:07;99812.56;;;8.94;61.38
74722;BME280;63470;49.826;6.740;2023-04-25T07:55:40;99821.81;;;8.91;61.44
74722;BME280;63470;49.826;6.740;2023-04-25T07:58:09;99824.68;;;8.88;61.46
74722;BME280;63470;49.826;6.740;2023-04-25T08:00:39;99830.24;;;8.89;61.45
74722;BME280;63470;49.826;6.740;2023-04-25T08:03:09;99832.89;;;8.93;61.43
74722;BME280;63470;49.826;6.740;2023-04-25T08:05:40;99832.63;;;8.99;61.36
74722;BME280;63470;49.826;6.740;2023-04-25T08:08:16;99838.48;;;9.09;61.28
74722;BME280;63470;49.826;6.740;2023-04-25T08:10:46;99844.66;;;9.23;61.22
74722;BME280;63470;49.826;6.740;2023-04-25T08:13:14;99854.76;;;9.40;61.05
74722;BME280;63470;49.826;6.740;2023-04-25T08:15:45;99854.86;;;9.48;60.93
74722;BME280;63470;49.826;6.740;2023-04-25T08:18:18;99860.06;;;9.52;60.94
74722;BME280;63470;49.826;6.740;2023-04-25T08:20:48;99859.04;;;9.54;60.94
74722;BME280;63470;49.826;6.740;2023-04-25T08:23:22;99871.55;;;9.64;60.94
74722;BME280;63470;49.826;6.740;2023-04-25T08:25:44;99873.39;;;9.81;60.86
74722;BME280;63470;49.826;6.740;2023-04-25T08:28:15;99878.52;;;9.92;60.72
74722;BME280;63470;49.826;6.740;2023-04-25T08:30:45;99885.82;;;10.03;60.58
74722;BME280;63470;49.826;6.740;2023-04-25T08:33:15;99886.03;;;10.08;60.55
74722;BME280;63470;49.826;6.740;2023-04-25T08:35:46;99885.87;;;10.05;60.61
74722;BME280;63470;49.826;6.740;2023-04-25T08:38:17;99890.56;;;10.00;60.70
74722;BME280;63470;49.826;6.740;2023-04-25T08:40:49;99891.98;;;9.91;60.83
74722;BME280;63470;49.826;6.740;2023-04-25T08:43:19;99893.59;;;9.88;60.98
74722;BME280;63470;49.826;6.740;2023-04-25T08:45:54;99895.78;;;9.90;61.03
74722;BME280;63470;49.826;6.740;2023-04-25T08:48:24;99899.50;;;9.99;61.00
74722;BME280;63470;49.826;6.740;2023-04-25T08:50:56;99899.67;;;10.03;60.95
74722;BME280;63470;49.826;6.740;2023-04-25T08:53:31;99902.80;;;10.07;60.98
74722;BME280;63470;49.826;6.740;2023-04-25T08:55:53;99902.06;;;10.18;60.90
74722;BME280;63470;49.826;6.740;2023-04-25T08:58:22;99910.73;;;10.41;60.69
74722;BME280;63470;49.826;6.740;2023-04-25T09:00:55;99918.19;;;10.64;60.70
74722;BME280;63470;49.826;6.740;2023-04-25T09:03:27;99913.58;;;11.00;60.34
74722;BME280;63470;49.826;6.740;2023-04-25T09:05:57;99918.50;;;11.39;60.01
74722;BME280;63470;49.826;6.740;2023-04-25T09:08:27;99917.72;;;11.78;59.56
74722;BME280;63470;49.826;6.740;2023-04-25T09:10:52;99924.84;;;11.97;59.38
74722;BME280;63470;49.826;6.740;2023-04-25T09:13:27;99925.62;;;11.92;59.38
74722;BME280;63470;49.826;6.740;2023-04-25T09:15:54;99929.12;;;11.79;59.74
74722;BME280;63470;49.826;6.740;2023-04-25T09:18:29;99934.47;;;11.62;60.08
74722;BME280;63470;49.826;6.740;2023-04-25T09:20:56;99937.99;;;11.40;60.38
74722;BME280;63470;49.826;6.740;2023-04-25T09:23:24;99941.28;;;11.16;60.87
74722;BME280;63470;49.826;6.740;2023-04-25T09:25:55;99947.17;;;11.04;61.16
74722;BME280;63470;49.826;6.740;2023-04-25T09:28:33;99953.22;;;10.96;61.27
74722;BME280;63470;49.826;6.740;2023-04-25T09:30:56;99953.85;;;10.89;61.31
74722;BME280;63470;49.826;6.740;2023-04-25T09:33:37;99957.82;;;10.85;61.33
74722;BME280;63470;49.826;6.740;2023-04-25T09:36:08;99959.05;;;10.82;61.28
74722;BME280;63470;49.826;6.740;2023-04-25T09:38:32;99961.88;;;10.77;61.25
74722;BME280;63470;49.826;6.740;2023-04-25T09:41:02;99969.05;;;10.73;61.33
74722;BME280;63470;49.826;6.740;2023-04-25T09:43:28;99976.19;;;10.75;61.35
74722;BME280;63470;49.826;6.740;2023-04-25T09:46:02;99975.66;;;10.77;61.30
74722;BME280;63470;49.826;6.740;2023-04-25T09:48:30;99972.31;;;10.79;61.21
74722;BME280;63470;49.826;6.740;2023-04-25T09:51:12;99976.59;;;10.83;60.89
74722;BME280;63470;49.826;6.740;2023-04-25T09:53:36;99979.12;;;10.81;60.82
74722;BME280;63470;49.826;6.740;2023-04-25T09:56:05;99979.03;;;10.86;60.97
74722;BME280;63470;49.826;6.740;2023-04-25T09:58:32;99982.41;;;10.95;60.81
74722;BME280;63470;49.826;6.740;2023-04-25T10:01:04;99986.20;;;10.97;60.65
74722;BME280;63470;49.826;6.740;2023-04-25T10:03:35;99979.09;;;11.02;60.66
74722;BME280;63470;49.826;6.740;2023-04-25T10:06:08;99985.34;;;11.14;60.51
74722;BME280;63470;49.826;6.740;2023-04-25T10:08:38;99981.70;;;11.33;60.30
74722;BME280;63470;49.826;6.740;2023-04-25T10:11:05;99985.38;;;11.48;60.11
74722;BME280;63470;49.826;6.740;2023-04-25T10:13:37;99986.62;;;11.59;60.11
74722;BME280;63470;49.826;6.740;2023-04-25T10:16:05;99990.67;;;11.77;60.05
74722;BME280;63470;49.826;6.740;2023-04-25T10:18:38;99989.27;;;12.03;59.66
74722;BME280;63470;49.826;6.740;2023-04-25T10:21:10;99992.65;;;12.38;59.35
74722;BME280;63470;49.826;6.740;2023-04-25T10:23:37;99986.77;;;12.79;58.97
74722;BME280;63470;49.826;6.740;2023-04-25T10:26:14;99995.15;;;13.15;58.57
74722;BME280;63470;49.826;6.740;2023-04-25T10:28:55;99988.97;;;13.58;58.16
74722;BME280;63470;49.826;6.740;2023-04-25T10:31:08;99990.94;;;14.00;57.98
74722;BME280;63470;49.826;6.740;2023-04-25T10:33:42;99994.98;;;14.33;57.74
74722;BME280;63470;49.826;6.740;2023-04-25T10:36:11;99993.02;;;14.37;57.89
74722;BME280;63470;49.826;6.740;2023-04-25T10:38:40;99998.04;;;14.33;58.34
74722;BME280;63470;49.826;6.740;2023-04-25T10:41:11;99998.13;;;14.27;58.62
74722;BME280;63470;49.826;6.740;2023-04-25T10:43:42;99996.55;;;14.10;58.87
74722;BME280;63470;49.826;6.740;2023-04-25T10:46:29;99992.84;;;13.88;59.26
74722;BME280;63470;49.826;6.740;2023-04-25T10:48:54;99991.20;;;13.75;59.46
74722;BME280;63470;49.826;6.740;2023-04-25T10:51:17;99987.59;;;13.66;59.49
74722;BME280;63470;49.826;6.740;2023-04-25T10:53:46;99989.02;;;13.68;59.43
74722;BME280;63470;49.826;6.740;2023-04-25T10:56:17;99983.28;;;13.98;59.35
74722;BME280;63470;49.826;6.740;2023-04-25T10:58:48;99986.09;;;14.65;58.65
74722;BME280;63470;49.826;6.740;2023-04-25T11:01:19;99980.44;;;15.23;57.83
74722;BME280;63470;49.826;6.740;2023-04-25T11:03:45;99976.19;;;15.69;57.33
74722;BME280;63470;49.826;6.740;2023-04-25T11:08:49;99969.23;;;15.88;57.45
74722;BME280;63470;49.826;6.740;2023-04-25T11:11:17;99968.31;;;15.66;58.05
74722;BME280;63470;49.826;6.740;2023-04-25T11:13:49;99970.63;;;15.58;58.18
74722;BME280;63470;49.826;6.740;2023-04-25T11:16:20;99973.27;;;15.33;58.29
74722;BME280;63470;49.826;6.740;2023-04-25T11:18:48;99982.17;;;15.03;58.84
74722;BME280;63470;49.826;6.740;2023-04-25T11:21:21;99980.94;;;14.85;59.21
74722;BME280;63470;49.826;6.740;2023-04-25T11:23:49;99982.81;;;14.80;59.17
74722;BME280;63470;49.826;6.740;2023-04-25T11:26:22;99979.33;;;14.75;59.23
74722;BME280;63470;49.826;6.740;2023-04-25T11:28:49;99987.81;;;15.04;59.22
74722;BME280;63470;49.826;6.740;2023-04-25T11:31:20;99986.23;;;15.06;59.09
74722;BME280;63470;49.826;6.740;2023-04-25T11:33:50;99989.75;;;15.16;59.00
74722;BME280;63470;49.826;6.740;2023-04-25T11:36:22;99992.31;;;15.21;58.90
74722;BME280;63470;49.826;6.740;2023-04-25T11:38:51;99985.05;;;15.62;58.79
74722;BME280;63470;49.826;6.740;2023-04-25T11:41:22;99982.88;;;16.31;58.11
74722;BME280;63470;49.826;6.740;2023-04-25T11:43:54;99990.09;;;16.72;57.45
74722;BME280;63470;49.826;6.740;2023-04-25T11:46:24;99984.75;;;16.52;57.80
74722;BME280;63470;49.826;6.740;2023-04-25T11:48:51;99982.42;;;16.72;57.96
74722;BME280;63470;49.826;6.740;2023-04-25T11:51:21;99985.42;;;16.77;57.99
74722;BME280;63470;49.826;6.740;2023-04-25T11:53:52;99980.09;;;16.77;57.93
74722;BME280;63470;49.826;6.740;2023-04-25T11:56:22;99984.23;;;16.85;58.31
74722;BME280;63470;49.826;6.740;2023-04-25T11:58:53;99991.66;;;16.54;58.69
74722;BME280;63470;49.826;6.740;2023-04-25T12:01:32;99997.32;;;15.79;59.58
74722;BME280;63470;49.826;6.740;2023-04-25T12:03:54;100000.73;;;15.13;60.45
74722;BME280;63470;49.826;6.740;2023-04-25T12:06:28;100005.97;;;14.69;60.90
74722;BME280;63470;49.826;6.740;2023-04-25T12:08:59;100006.16;;;14.21;60.95
74722;BME280;63470;49.826;6.740;2023-04-25T12:11:25;100002.33;;;13.77;61.38
74722;BME280;63470;49.826;6.740;2023-04-25T12:14:01;100003.59;;;13.66;61.46
74722;BME280;63470;49.826;6.740;2023-04-25T12:16:26;100007.76;;;13.71;61.04
74722;BME280;63470;49.826;6.740;2023-04-25T12:18:59;100004.49;;;13.97;60.58
74722;BME280;63470;49.826;6.740;2023-04-25T12:21:28;100014.34;;;14.49;60.02
74722;BME280;63470;49.826;6.740;2023-04-25T12:24:15;100017.02;;;14.98;59.31
74722;BME280;63470;49.826;6.740;2023-04-25T12:26:46;100015.34;;;15.37;58.80
74722;BME280;63470;49.826;6.740;2023-04-25T12:29:01;100015.39;;;15.68;58.41
74722;BME280;63470;49.826;6.740;2023-04-25T12:31:33;100016.03;;;15.71;58.38
74722;BME280;63470;49.826;6.740;2023-04-25T12:34:00;100017.23;;;15.74;58.57
74722;BME280;63470;49.826;6.740;2023-04-25T12:36:34;100021.89;;;15.64;58.86
74722;BME280;63470;49.826;6.740;2023-04-25T12:39:04;100020.97;;;15.56;59.04
74722;BME280;63470;49.826;6.740;2023-04-25T12:41:32;100026.64;;;15.40;59.01
74722;BME280;63470;49.826;6.740;2023-04-25T12:44:02;100030.59;;;15.26;59.24
74722;BME280;63470;49.826;6.740;2023-04-25T12:46:33;100033.33;;;15.15;59.27
74722;BME280;63470;49.826;6.740;2023-04-25T12:49:04;100037.25;;;15.04;59.46
74722;BME280;63470;49.826;6.740;2023-04-25T12:51:37;100045.58;;;14.90;59.44
74722;BME280;63470;49.826;6.740;2023-04-25T12:54:05;100048.94;;;14.75;59.63
74722;BME280;63470;49.826;6.740;2023-04-25T12:56:35;100050.42;;;14.43;59.75
74722;BME280;63470;49.826;6.740;2023-04-25T12:59:06;100042.45;;;14.10;60.09
74722;BME280;63470;49.826;6.740;2023-04-25T13:01:36;100035.78;;;13.81;60.41
74722;BME280;63470;49.826;6.740;2023-04-25T13:04:07;100046.75;;;13.62;60.57
74722;BME280;63470;49.826;6.740;2023-04-25T13:06:37;100052.11;;;13.44;60.70
74722;BME280;63470;49.826;6.740;2023-04-25T13:09:08;100049.78;;;13.21;60.73
74722;BME280;63470;49.826;6.740;2023-04-25T13:11:38;100046.95;;;12.99;60.87
74722;BME280;63470;49.826;6.740;2023-04-25T13:14:09;100042.99;;;12.93;60.88
74722;BME280;63470;49.826;6.740;2023-04-25T13:16:39;100041.95;;;13.10;60.62
74722;BME280;63470;49.826;6.740;2023-04-25T13:19:12;100029.55;;;13.79;60.48
74722;BME280;63470;49.826;6.740;2023-04-25T13:21:40;100032.72;;;14.60;59.41
74722;BME280;63470;49.826;6.740;2023-04-25T13:24:11;100030.98;;;15.15;58.90
74722;BME280;63470;49.826;6.740;2023-04-25T13:26:41;100031.85;;;15.71;58.26
74722;BME280;63470;49.826;6.740;2023-04-25T13:29:12;100021.12;;;15.97;57.97
74722;BME280;63470;49.826;6.740;2023-04-25T13:31:42;100026.87;;;16.19;57.79